Flight Track Log - Related Links

Times and Time Zones

All times are in EDT time to prevent confusion due to time zone crossing. See the SWA318 flight status page for this flight to view local times or setup timezone preferences in your user account.

Time Position Orientation Groundspeed Altitude Reporting Facility
EDT Latitude Longitude Course Direction KTS MPH feet Rate Location/Type
Mon 08:27:20 AM 42.9500 -87.8833 90° East 158 182 1,900  Level KMKE
Mon 08:27:38 AM 42.9500 -87.8667 90° East 160 184 2,000 1,200 Climbing KMKE
Mon 08:28:35 AM 43.0047 -87.8589 North 277 319 3,400 2,238 Climbing Chicago Center
Mon 08:29:44 AM 43.0167 -87.9833 278° West 290 334 6,700 2,678 Climbing KMKE
Mon 08:31:32 AM 43.0553 -88.1586 287° West 295 339 11,300 2,663 Climbing Minneapolis Center
Mon 08:32:33 AM 43.0253 -88.2906 253° West 310 357 14,200 2,803 Climbing Minneapolis Center
Mon 08:33:34 AM 43.0011 -88.4061 254° West 314 361 17,000 2,439 Climbing Minneapolis Center
Mon 08:34:36 AM 42.9764 -88.5244 254° West 320 368 19,200 2,000 Climbing Minneapolis Center
Mon 08:35:37 AM 42.9667 -88.6572 264° West 344 396 21,100 1,131 Climbing Minneapolis Center
Mon 08:36:38 AM 42.9553 -88.7942 264° West 358 412 21,500 829 Climbing Minneapolis Center
Mon 08:37:40 AM 42.9425 -88.9503 264° West 402 463 22,800 1,317 Climbing Minneapolis Center
Mon 08:38:41 AM 42.9253 -89.1250 262° West 417 480 24,200 1,672 Climbing Minneapolis Center
Mon 08:39:42 AM 42.9067 -89.2675 260° West 421 484 26,200 1,623 Climbing Minneapolis Center
Mon 08:40:43 AM 42.9072 -89.4278 270° West 425 489 27,500 1,122 Climbing Minneapolis Center
Mon 08:41:45 AM 42.9208 -89.5944 276° West 438 504 28,500 1,122 Climbing Minneapolis Center
Mon 08:42:46 AM 42.9356 -89.7628 277° West 443 510 29,800 1,426 Climbing Minneapolis Center
Mon 08:43:47 AM 42.9478 -89.9608 275° West 447 514 31,400 1,268 Climbing Minneapolis Center
Mon 08:44:49 AM 42.9408 -90.1272 267° West 445 512 32,400 927 Climbing Minneapolis Center
Mon 08:45:50 AM 42.9331 -90.2708 266° West 443 510 33,300 984 Climbing Minneapolis Center
Mon 08:46:51 AM 42.9244 -90.4367 266° West 443 510 34,400 1,421 Climbing Minneapolis Center
Mon 08:47:06 AM 42.9131 -90.4989 256° West 433 498 35,100 1,247 Climbing Chicago Center
Mon 08:48:08 AM 42.8836 -90.6481 255° West 411 473 36,000 439 Climbing Chicago Center
Mon 08:49:09 AM 42.8572 -90.7936 256° West 401 461 36,000  Level Chicago Center
Mon 08:50:11 AM 42.8306 -90.9392 256° West 399 459 36,000  Level Chicago Center
Mon 08:51:13 AM 42.8039 -91.0842 256° West 397 457 36,000  Level Chicago Center
Mon 08:52:14 AM 42.7708 -91.2581 256° West 397 457 36,000  Level Chicago Center
Mon 08:53:16 AM 42.7431 -91.4008 255° West 394 453 36,000  Level Chicago Center
Mon 08:54:01 AM 42.7253 -91.4864 254° West 393 452 36,000  Level Minneapolis Center
Mon 08:55:02 AM 42.6775 -91.6403 247° West 398 458 36,000  Level Minneapolis Center
Mon 08:56:04 AM 42.6303 -91.7531 240° Southwest 387 445 36,000  Level Minneapolis Center
Mon 08:56:21 AM 42.6119 -91.8017 243° Southwest 379 436 36,000  Level Chicago Center
Mon 08:57:23 AM 42.5658 -91.9269 243° Southwest 374 430 36,000  Level Chicago Center
Mon 08:58:24 AM 42.5219 -92.0514 244° Southwest 369 425 36,000  Level Chicago Center
Mon 08:59:08 AM 42.4872 -92.1519 245° Southwest 367 422 36,000  Level Minneapolis Center
Mon 09:00:09 AM 42.4511 -92.2781 249° West 364 419 36,000  Level Minneapolis Center
Mon 09:01:11 AM 42.4308 -92.4106 258° West 363 418 36,000  Level Minneapolis Center
Mon 09:02:12 AM 42.4047 -92.5436 255° West 365 420 36,000  Level Minneapolis Center
Mon 09:03:26 AM 42.3797 -92.6775 256° West 367 422 36,000  Level Minneapolis Center
Mon 09:04:27 AM 42.3433 -92.8631 255° West 368 423 36,000  Level Minneapolis Center
Mon 09:05:29 AM 42.3161 -92.9986 255° West 374 430 36,000  Level Minneapolis Center
Mon 09:06:30 AM 42.2903 -93.1344 256° West 376 433 36,000  Level Minneapolis Center
Mon 09:07:32 AM 42.2644 -93.2692 256° West 374 430 36,000  Level Minneapolis Center
Mon 09:08:33 AM 42.2372 -93.4044 255° West 377 434 36,000  Level Minneapolis Center
Mon 09:09:35 AM 42.2094 -93.5397 255° West 377 434 36,000  Level Minneapolis Center
Mon 09:10:36 AM 42.1833 -93.6733 255° West 373 429 36,000  Level Minneapolis Center
Mon 09:11:38 AM 42.1506 -93.8372 255° West 379 436 36,000  Level Minneapolis Center
Mon 09:12:39 AM 42.1256 -93.9653 255° West 376 433 36,000  Level Minneapolis Center
Mon 09:13:40 AM 42.0961 -94.1014 254° West 378 435 36,000  Level Minneapolis Center
Mon 09:14:42 AM 42.0689 -94.2397 255° West 380 437 36,000  Level Minneapolis Center
Mon 09:15:43 AM 42.0394 -94.3778 254° West 382 440 36,000  Level Minneapolis Center
Mon 09:16:45 AM 42.0042 -94.5456 254° West 386 444 36,000  Level Minneapolis Center
Mon 09:17:46 AM 41.9761 -94.6828 255° West 381 438 36,000  Level Minneapolis Center
Mon 09:18:48 AM 41.9467 -94.8200 254° West 381 438 36,000  Level Minneapolis Center
Mon 09:19:49 AM 41.9178 -94.9583 254° West 383 441 36,000  Level Minneapolis Center
Mon 09:20:51 AM 41.8878 -95.0964 254° West 385 443 36,000  Level Minneapolis Center
Mon 09:21:52 AM 41.8572 -95.2336 253° West 386 444 36,000  Level Minneapolis Center
Mon 09:22:54 AM 41.8272 -95.3722 254° West 386 444 36,000  Level Minneapolis Center
Mon 09:23:55 AM 41.7969 -95.5106 254° West 388 447 36,000  Level Minneapolis Center
Mon 09:24:57 AM 41.7611 -95.6747 254° West 385 443 36,000  Level Minneapolis Center
Mon 09:25:58 AM 41.7311 -95.8075 253° West 376 433 36,000  Level Minneapolis Center
Mon 09:26:59 AM 41.7017 -95.9394 253° West 374 430 36,000  Level Minneapolis Center
Mon 09:28:01 AM 41.6722 -96.0708 253° West 373 429 36,000  Level Minneapolis Center
Mon 09:29:02 AM 41.6436 -96.1972 253° West 375 432 36,000  Level Minneapolis Center
Mon 09:30:04 AM 41.6131 -96.3311 253° West 376 433 36,000  Level Minneapolis Center
Mon 09:31:05 AM 41.5819 -96.4697 253° West 379 436 36,000  Level Minneapolis Center
Mon 09:32:06 AM 41.5442 -96.6311 253° West 383 441 36,000  Level Minneapolis Center
Mon 09:33:08 AM 41.5131 -96.7669 253° West 384 442 36,000  Level Minneapolis Center
Mon 09:34:09 AM 41.4811 -96.9033 253° West 387 445 36,000  Level Minneapolis Center
Mon 09:35:11 AM 41.4486 -97.0394 252° West 386 444 36,000  Level Minneapolis Center
Mon 09:36:12 AM 41.4156 -97.1761 252° West 387 445 36,000  Level Minneapolis Center
Mon 09:37:13 AM 41.3833 -97.3142 253° West 389 448 36,000  Level Minneapolis Center
Mon 09:38:15 AM 41.3497 -97.4539 252° West 393 452 36,000  Level Minneapolis Center
Mon 09:39:16 AM 41.3158 -97.5936 252° West 394 453 36,000  Level Minneapolis Center
Mon 09:40:30 AM 41.2825 -97.7283 252° West 390 449 36,000  Level Minneapolis Center
Mon 09:41:31 AM 41.2386 -97.9106 252° West 374 430 36,000  Level Minneapolis Center
Mon 09:42:33 AM 41.2075 -98.0386 252° West 365 420 36,000  Level Minneapolis Center
Mon 09:43:34 AM 41.1767 -98.1644 252° West 360 414 36,000  Level Minneapolis Center
Mon 09:44:36 AM 41.1450 -98.2903 252° West 359 413 36,000  Level Minneapolis Center
Mon 09:45:37 AM 41.1142 -98.4181 252° West 361 415 36,000  Level Minneapolis Center
Mon 09:46:38 AM 41.0825 -98.5422 251° West 364 419 36,000  Level Minneapolis Center
Mon 09:47:40 AM 41.0508 -98.6714 252° West 367 422 36,000  Level Minneapolis Center
Mon 09:48:41 AM 41.0172 -98.8000 251° West 369 425 36,000  Level Minneapolis Center
Mon 09:49:42 AM 40.9908 -98.9058 252° West 374 430 36,000  Level Minneapolis Center
Mon 09:50:44 AM 40.9439 -99.0900 251° West 378 435 36,000  Level Minneapolis Center
Mon 09:51:45 AM 40.9131 -99.2100 251° West 378 435 36,000  Level Minneapolis Center
Mon 09:52:47 AM 40.8783 -99.3425 251° West 380 437 36,000  Level Minneapolis Center
Mon 09:53:48 AM 40.8444 -99.4756 251° West 380 437 36,000  Level Minneapolis Center
Mon 09:54:49 AM 40.8106 -99.6064 251° West 378 435 36,000  Level Minneapolis Center
Mon 09:55:50 AM 40.7686 -99.7594 250° West 369 425 36,000  Level Denver Center
Mon 09:56:52 AM 40.7372 -99.8747 250° West 367 422 36,000  Level Denver Center
Mon 09:57:53 AM 40.7006 -100.0167 251° West 366 421 36,000  Level Denver Center
Mon 09:58:54 AM 40.6683 -100.1356 250° West 360 414 36,000  Level Denver Center
Mon 09:59:55 AM 40.6375 -100.2503 251° West 348 400 36,000  Level Denver Center
Mon 10:00:56 AM 40.6008 -100.3853 250° West 349 402 36,000  Level Denver Center
Mon 10:01:57 AM 40.5697 -100.5006 250° West 348 400 36,000  Level Denver Center
Mon 10:02:59 AM 40.5383 -100.6164 250° West 347 399 36,000  Level Denver Center
Mon 10:04:00 AM 40.5011 -100.7506 250° West 348 400 36,000  Level Denver Center
Mon 10:05:01 AM 40.4689 -100.8658 250° West 349 402 36,000  Level Denver Center
Mon 10:06:02 AM 40.4458 -100.9856 256° West 352 405 36,000  Level Denver Center
Mon 10:07:04 AM 40.4258 -101.1275 260° West 355 409 36,000  Level Denver Center
Mon 10:08:05 AM 40.4100 -101.2475 260° West 350 403 36,000  Level Denver Center
Mon 10:09:07 AM 40.3939 -101.3686 260° West 351 404 36,000  Level Denver Center
Mon 10:10:08 AM 40.3742 -101.5089 260° West 352 405 36,000  Level Denver Center
Mon 10:11:09 AM 40.3567 -101.6283 259° West 349 402 36,000  Level Denver Center
Mon 10:12:11 AM 40.3372 -101.7694 260° West 351 404 36,000  Level Denver Center
Mon 10:13:12 AM 40.3194 -101.8903 259° West 354 407 36,000  Level Denver Center
Mon 10:14:14 AM 40.3028 -102.0097 260° West 350 403 36,000  Level Denver Center
Mon 10:15:15 AM 40.2814 -102.1511 259° West 356 410 36,000  Level Denver Center
Mon 10:16:17 AM 40.2639 -102.2722 259° West 352 405 36,000  Level Denver Center
Mon 10:17:18 AM 40.2431 -102.4136 259° West 355 409 36,000  Level Denver Center
Mon 10:18:20 AM 40.2261 -102.5361 260° West 356 410 36,000  Level Denver Center
Mon 10:19:21 AM 40.2044 -102.6769 259° West 354 407 36,000  Level Denver Center
Mon 10:20:23 AM 40.1864 -102.7986 259° West 355 409 36,000  Level Denver Center
Mon 10:21:25 AM 40.1658 -102.9247 258° West 352 405 36,000  Level Denver Center
Mon 10:22:26 AM 40.1469 -103.0506 259° West 351 404 36,000  Level Denver Center
Mon 10:23:28 AM 40.1286 -103.1764 259° West 351 404 36,000  Level Denver Center
Mon 10:24:41 AM 40.1078 -103.3017 258° West 351 404 36,000  Level Denver Center
Mon 10:25:43 AM 40.0819 -103.4711 259° West 355 409 36,000  Level Denver Center
Mon 10:26:45 AM 40.0619 -103.5981 258° West 355 409 36,000  Level Denver Center
Mon 10:27:46 AM 40.0447 -103.7031 258° West 353 406 36,000  Level Denver Center
Mon 10:28:49 AM 40.0219 -103.8525 259° West 356 410 36,000  Level Denver Center
Mon 10:29:50 AM 40.0019 -103.9786 258° West 352 405 36,000  Level Denver Center
Mon 10:30:52 AM 39.9811 -104.1053 258° West 356 410 36,000  Level Denver Center
Mon 10:31:54 AM 39.9600 -104.2317 258° West 354 407 36,000  Level Denver Center
Mon 10:32:56 AM 39.9392 -104.3597 258° West 359 413 36,000  Level Denver Center
Mon 10:33:57 AM 39.9136 -104.5081 257° West 359 413 36,000  Level Denver Center
Mon 10:34:59 AM 39.8933 -104.6356 258° West 361 415 36,000  Level Denver Center
Mon 10:36:01 AM 39.8675 -104.7586 255° West 354 407 36,000  Level Denver Center
Mon 10:37:03 AM 39.8436 -104.8867 256° West 363 418 36,000  Level Denver Center
Mon 10:38:05 AM 39.8189 -105.0147 256° West 365 420 36,000  Level Denver Center
Mon 10:39:07 AM 39.7944 -105.1417 256° West 361 415 36,000  Level Denver Center
Mon 10:40:08 AM 39.7647 -105.2919 256° West 366 421 36,000  Level Denver Center
Mon 10:41:10 AM 39.7389 -105.4208 255° West 365 420 36,000  Level Denver Center
Mon 10:42:12 AM 39.7136 -105.5517 256° West 370 426 36,000  Level Denver Center
Mon 10:43:14 AM 39.6867 -105.6833 255° West 370 426 36,000  Level Denver Center
Mon 10:44:16 AM 39.6594 -105.8156 255° West 374 430 36,000  Level Denver Center
Mon 10:45:18 AM 39.6344 -105.9467 256° West 372 428 36,000  Level Denver Center
Mon 10:46:20 AM 39.6083 -106.0769 255° West 372 428 36,000  Level Denver Center
Mon 10:47:22 AM 39.5803 -106.2200 256° West 374 430 36,000  Level Denver Center
Mon 10:48:24 AM 39.5533 -106.3497 255° West 373 429 36,000  Level Denver Center
Mon 10:49:26 AM 39.5261 -106.4786 255° West 371 427 36,000  Level Denver Center
Mon 10:50:28 AM 39.4986 -106.6131 255° West 376 433 36,000  Level Denver Center
Mon 10:51:29 AM 39.4681 -106.7575 255° West 372 428 36,000  Level Denver Center
Mon 10:52:31 AM 39.4422 -106.8806 255° West 369 425 36,000  Level Denver Center
Mon 10:53:33 AM 39.4067 -107.0231 252° West 372 428 36,000  Level Denver Center
Mon 10:54:35 AM 39.3783 -107.1406 253° West 363 418 36,000  Level Denver Center
Mon 10:55:37 AM 39.3422 -107.2800 252° West 365 420 36,000  Level Denver Center
Mon 10:56:39 AM 39.3119 -107.4000 252° West 367 422 36,000  Level Denver Center
Mon 10:57:41 AM 39.2764 -107.5417 252° West 369 425 36,000  Level Denver Center
Mon 10:58:43 AM 39.2447 -107.6636 251° West 372 428 36,000  Level Denver Center
Mon 10:59:45 AM 39.2136 -107.7833 251° West 370 426 36,000  Level Denver Center
Mon 11:00:47 AM 39.1825 -107.9050 252° West 371 427 36,000  Level Denver Center
Mon 11:01:49 AM 39.1450 -108.0458 251° West 371 427 36,000  Level Denver Center
Mon 11:02:51 AM 39.1089 -108.1872 252° West 372 428 36,000  Level Denver Center
Mon 11:03:53 AM 39.0769 -108.3089 251° West 373 429 36,000  Level Denver Center
Mon 11:04:55 AM 39.0397 -108.4494 251° West 371 427 36,000  Level Denver Center
Mon 11:05:57 AM 39.0078 -108.5681 251° West 367 422 36,000  Level Denver Center
Mon 11:06:59 AM 38.9703 -108.7119 252° West 378 435 36,000  Level Denver Center
Mon 11:08:01 AM 38.9361 -108.8381 251° West 388 447 36,000  Level Denver Center
Mon 11:09:03 AM 38.9011 -108.9639 250° West 388 447 36,000  Level Denver Center
Mon 11:10:05 AM 38.8442 -109.0989 242° Southwest 383 441 36,000  Level Denver Center
Mon 11:11:08 AM 38.7969 -109.2133 242° Southwest 379 436 36,000  Level Denver Center
Mon 11:12:10 AM 38.7408 -109.3444 241° Southwest 376 433 36,000  Level Denver Center
Mon 11:13:12 AM 38.6939 -109.4597 242° Southwest 380 437 36,000  Level Denver Center
Mon 11:14:14 AM 38.6364 -109.5908 241° Southwest 378 435 36,000  Level Denver Center
Mon 11:15:16 AM 38.5858 -109.7056 241° Southwest 386 444 36,000  Level Denver Center
Mon 11:16:18 AM 38.5289 -109.8394 242° Southwest 385 443 36,000  Level Denver Center
Mon 11:17:20 AM 38.4794 -109.9533 241° Southwest 381 438 36,000 -677 Level Denver Center
Mon 11:18:22 AM 38.4200 -110.0883 241° Southwest 392 451 34,600 -1,340 Descending Denver Center
Mon 11:19:03 AM 38.3889 -110.1686 244° Southwest 392 451 33,700 -1,355 Descending Salt Lake Center
Mon 11:19:24 AM 38.3708 -110.2042 237° Southwest 388 447 33,200 -1,157 Descending Denver Center
Mon 11:20:26 AM 38.3436 -110.3514 257° West 398 458 32,100 -581 Descending Denver Center
Mon 11:21:28 AM 38.3472 -110.4886 272° West 405 466 32,000 -48 Descending Denver Center
Mon 11:22:30 AM 38.3486 -110.6267 271° West 408 470 32,000  Level Denver Center
Mon 11:23:10 AM 38.3514 -110.7433 272° West 407 468 32,000  Level Salt Lake Center
Mon 11:24:12 AM 38.3506 -110.8792 270° West 404 465 32,000  Level Salt Lake Center
Mon 11:25:14 AM 38.3342 -111.0178 261° West 399 459 32,000  Level Salt Lake Center
Mon 11:26:16 AM 38.2689 -111.1300 233° Southwest 392 451 32,000  Level Salt Lake Center
Mon 11:27:17 AM 38.2064 -111.2425 235° Southwest 391 450 32,000 -195 Level Salt Lake Center
Mon 11:28:19 AM 38.1292 -111.3833 235° Southwest 402 463 31,600 -581 Descending Salt Lake Center
Mon 11:29:21 AM 38.0658 -111.4964 235° Southwest 396 456 30,800 -677 Descending Salt Lake Center
Mon 11:30:23 AM 38.0039 -111.6111 236° Southwest 395 455 30,200 -387 Descending Salt Lake Center
Mon 11:31:25 AM 37.9389 -111.7253 234° Southwest 398 458 30,000 -629 Descending Salt Lake Center
Mon 11:32:27 AM 37.8811 -111.8464 239° Southwest 401 461 28,900 -968 Descending Salt Lake Center
Mon 11:33:29 AM 37.8425 -111.9814 250° West 407 468 28,000 -435 Descending Salt Lake Center
Mon 11:34:31 AM 37.8044 -112.1139 250° West 404 465 28,000  Level Salt Lake Center
Mon 11:35:32 AM 37.7350 -112.2503 237° Southwest 388 447 28,000  Level Salt Lake Center
Mon 11:36:34 AM 37.6689 -112.3553 232° Southwest 384 442 28,000  Level Salt Lake Center
Mon 11:37:36 AM 37.6022 -112.4636 232° Southwest 387 445 28,000  Level Salt Lake Center
Mon 11:38:38 AM 37.5353 -112.5725 232° Southwest 389 448 28,000  Level Salt Lake Center
Mon 11:39:40 AM 37.4686 -112.6778 231° Southwest 384 442 28,000  Level Salt Lake Center
Mon 11:40:42 AM 37.4028 -112.7836 232° Southwest 380 437 28,000  Level Salt Lake Center
Mon 11:41:44 AM 37.3364 -112.8883 231° Southwest 379 436 28,000  Level Salt Lake Center
Mon 11:42:46 AM 37.2697 -112.9928 231° Southwest 380 437 28,000  Level Salt Lake Center
Mon 11:43:48 AM 37.2053 -113.0964 232° Southwest 378 435 28,000  Level Salt Lake Center
Mon 11:44:59 AM 37.1264 -113.2194 231° Southwest 378 435 28,000  Level Los Angeles Center
Mon 11:45:51 AM 37.0614 -113.3250 232° Southwest 380 437 28,000 -53 Level Salt Lake Center
Mon 11:46:53 AM 36.9933 -113.4297 231° Southwest 385 443 27,900 -537 Descending Salt Lake Center
Mon 11:48:05 AM 36.8853 -113.5200 214° Southwest 391 450 26,800 -1,119 Descending Los Angeles Center
Mon 11:49:07 AM 36.7939 -113.5925 212° Southwest 391 450 25,400 -1,258 Descending Los Angeles Center
Mon 11:50:09 AM 36.7067 -113.6619 213° Southwest 376 433 24,200 -677 Descending Los Angeles Center
Mon 11:51:11 AM 36.6303 -113.7222 212° Southwest 331 381 24,000 -927 Descending Los Angeles Center
Mon 11:52:12 AM 36.5414 -113.8031 216° Southwest 328 377 22,300 -1,707 Descending Los Angeles Center
Mon 11:53:14 AM 36.4953 -113.8800 233° Southwest 321 369 20,500 -1,597 Descending Los Angeles Center
Mon 11:54:16 AM 36.4253 -113.9811 229° Southwest 321 369 19,000 -2,034 Descending Los Angeles Center
Mon 11:55:12 AM 36.3978 -114.0531 245° Southwest 312 359 16,500 -2,757 Descending Los Angeles Center
Mon 11:56:07 AM 36.4000 -114.1781 271° West 352 405 13,900 -2,016 Descending Los Angeles Center
Mon 11:57:14 AM 36.3639 -114.2975 249° West 343 395 12,400 -590 Descending Los Angeles Center
Mon 11:59:10 AM 36.2828 -114.4669 239° Southwest 287 330 12,100 -136 Descending Los Angeles Center
Mon 11:59:26 AM 36.2708 -114.4775 215° Southwest 289 333 12,100 -600 Level Los Angeles Center
Mon 12:00:10 PM 36.2339 -114.5292 228° Southwest 251 289 11,500 -677 Descending Los Angeles Center
Mon 12:00:28 PM 36.2225 -114.5369 209° Southwest 248 285 11,400 -984 Descending Los Angeles Center
Mon 12:01:11 PM 36.1864 -114.5878 229° Southwest 238 274 10,500 -811 Descending Los Angeles Center
Mon 12:01:42 PM 36.1775 -114.5947 212° Southwest 236 272 10,400 -1,200 Descending Los Angeles Center
Mon 12:02:06 PM 36.1478 -114.6383 230° Southwest 228 262 9,400 -1,378 Descending Los Angeles Center
Mon 12:02:56 PM 36.1161 -114.6728 221° Southwest 228 262 8,700 -1,075 Descending Los Angeles Center
Mon 12:03:13 PM 36.0967 -114.7008 229° Southwest 223 257 8,200 -857 Descending Los Angeles Center
Mon 12:03:59 PM 36.0694 -114.7411 230° Southwest 220 253 7,800 -716 Descending Los Angeles Center
Mon 12:04:20 PM 36.0736 -114.7725 279° West 216 249 7,400 -590 Descending Los Angeles Center
Mon 12:05:00 PM 36.0711 -114.7994 263° West 214 246 7,200 -436 Descending Los Angeles Center
Mon 12:05:15 PM 36.0736 -114.8311 276° West 183 211 7,000 -957 Descending Los Angeles Center
Mon 12:06:09 PM 36.0733 -114.8789 270° West 153 176 6,100 -881 Descending Los Angeles Center
Mon 12:07:04 PM 36.0731 -114.9186 270° West 165 190 5,400 -821 Descending Los Angeles Center
Mon 12:08:06 PM 36.0725 -114.9722 269° West 157 181 4,500 -987 Descending Los Angeles Center
Mon 12:08:23 PM 36.0731 -114.9961 272° West 158 182 4,100 -968 Descending Los Angeles Center
Mon 12:09:08 PM 36.0728 -115.0372 270° West 157 181 3,500 -787 Descending Los Angeles Center
Mon 12:09:24 PM 36.0739 -115.0492 277° West 150 173 3,300 -774 Descending Los Angeles Center
Mon 12:10:10 PM 36.0728 -115.0856 268° West 151 174 2,700 -787 Descending Los Angeles Center
Mon 12:10:25 PM 36.0736 -115.0972 275° West 138 159 2,500 -677 Descending Los Angeles Center
Mon 12:11:12 PM 36.0728 -115.1336 268° West 145 167 2,000 -638 Descending Los Angeles Center
Mon 12:13:00 PM 36.0667 -115.1500 219° Southwest  Level FlightAware Approximate

Login

Don't have an account? Register now (free) for customized features, flight alerts, and more!